TAF Text Data
IDs:
Format:
Raw Decoded Include METAR

Data at: 2011 UTC 02 Oct 2022

KTYS 021953Z 01008KT 10SM BKN027 OVC038 16/10 A3010 RMK AO2 SLP188 T01610100

KTYS 021726Z 0218/0318 02008KT P6SM SCT025 BKN035
  TEMPO 0218/0220 BKN025 OVC035
  FM022000 03008KT P6SM BKN045
  FM030400 04006KT P6SM SCT040


KGSO 021954Z 36009G15KT 10SM OVC012 14/12 A2997 RMK AO2 RAE13 SLP146 P0000 T01390122

KGSO 021740Z 0218/0318 36009KT 3SM -RADZ BR SCT008 OVC012
  TEMPO 0218/0220 1 1/2SM -RADZ BR BKN008 OVC012
  FM022200 36011G21KT 2SM -RADZ BR OVC008
  FM030500 02011G22KT P6SM OVC012
  FM031500 02012G22KT P6SM BKN022
  FM031600 02012G22KT P6SM SCT028


KCLT 021952Z 01010KT 10SM BKN032 18/11 A2998 RMK SLP148 T01830106 $

KCLT 021955Z 0220/0324 36012KT P6SM BKN035 BKN100
  TEMPO 0220/0222 01012G20KT SCT035 BKN070
  FM030200 01009KT P6SM BKN030
  FM031400 02010G17KT P6SM BKN035
  FM031900 02010G18KT P6SM SCT040


KRDU 021951Z 35005KT 6SM -DZ BR BKN009 OVC012 17/15 A2993 RMK AO2 RAB13E26DZB48 SLP132 P0000 T01670150

KRDU 021740Z 0218/0318 35008KT 5SM -RADZ BR BKN015 OVC030
  TEMPO 0218/0220 2SM -RADZ BR BKN008 OVC012
  FM022000 35009KT 3SM -RADZ BR OVC007
  FM030300 36012G22KT 4SM -RA BR BKN008 OVC015
  FM031600 01012G22KT P6SM BKN012


KPOB 022005Z AUTO 35006KT 10SM -DZ SCT006 BKN016 OVC025 17/14 A2991 RMK AO2 CIG 016V026 BKN V SCT CIG 014 RWY23 SLP131 $


KFBG 021955Z AUTO 31009KT 10SM SCT029 OVC037 19/13 A2990 RMK AO2 SLP127 T01870131 $

TAF KFBG 021711Z 0217/0323 31009KT 9999 OVC030 QNH2991INS
  BECMG 0220/0221 34009KT 9999 BKN018 QNH2992INS
  BECMG 0309/0310 36015G25KT 8000 -RA BKN008 BKN045 510023 QNH3003INS
  BECMG 0314/0315 01015G25KT 9999 NSW SCT009 BKN020 510023 QNH3011INS
  BECMG 0320/0321 01015G20KT 9000 -RA BKN030 510023 QNH3010INS TX19/0218Z TN12/0312Z


KFAY 022006Z 30009KT 10SM BKN029 OVC039 19/13 A2991 RMK AO2 T01890128

KFAY 021740Z 0218/0318 31008KT P6SM BKN035
  FM022000 35010KT 5SM -RA BKN020 OVC035
  FM022300 36010G18KT 5SM -RA BKN015 OVC025
  FM030300 36011G19KT P6SM BKN008 OVC015


KRWI 021953Z AUTO 35005KT 10SM FEW026 BKN044 21/13 A2989 RMK AO2 SLP121 T02060128

KRWI 021740Z 0218/0318 33006KT P6SM BKN015 OVC028
  TEMPO 0219/0221 3SM -RADZ BR BKN008 OVC012
  FM022100 33007KT 1 1/2SM -RADZ BR VCSH OVC007
  FM030100 36012G22KT 2SM -RA BR BKN006 OVC015
  FM031200 36013G23KT 5SM -RA BR BKN007 OVC015


KISO 021956Z 31006KT 10SM SCT026 OVC033 19/13 A2990

KISO 021741Z 0218/0318 31007KT P6SM BKN035
  FM022300 34007KT P6SM OVC015
  FM030200 35010G17KT P6SM -RA OVC007
  FM031500 36015G25KT 5SM -RA BR OVC006 AMD LTD TO CLD VIS AND WIND


KGWW 021955Z AUTO 03004KT 10SM SCT023 OVC035 19/13 A2990 RMK AO2 T01850132


KGSB 021955Z AUTO 32004KT 10SM BKN024 OVC030 19/11 A2987 RMK AO2 CIG 024V030 BKN V SCT SLP118 T01870113 $


KDPL 021955Z AUTO 33009G14KT 10SM SCT029 BKN035 19/12 A2990 RMK AO2


KCTZ 021955Z AUTO 33004KT 10SM OVC030 19/14 A2991 RMK AO2 T01850142


KORF 021951Z 00000KT 5SM -RA BKN038 OVC048 19/16 A2987 RMK AO2 RAB24 SLP115 P0000 T01890156

KORF 021720Z 0218/0318 33007KT P6SM BKN045
  FM022100 35013KT P6SM BKN035
  FM022200 35014G21KT P6SM VCSH BKN015
  FM030000 01017G25KT 5SM -RA BR OVC010
  FM030200 01019G32KT 4SM -RA BR OVC007
  FM031400 36025G38KT 5SM -RA BR OVC007


KLFI 021955Z 02010KT 10SM BKN010 OVC035 18/18 A2987 RMK AO2A DZB44E53 SLP121 P0000 T01790177 $

TAF KLFI 021700Z 0217/0323 VRB06KT 9999 OVC055 QNH2986INS
  BECMG 0218/0219 35012KT 8000 DZ OVC030 QNH2985INS
  TEMPO 0219/0220 36015G25KT 8000 -SHRA
  BECMG 0220/0221 03025G35KT 6000 -SHRA BKN006 OVC010 QNH2993INS
  TEMPO 0309/0313 02030G45KT 8000 DZ OVC010 TX22/0218Z TN13/0310Z


KNTU 021956Z 29009KT 10SM FEW020 OVC048 19/15 A2985 RMK AO2 SLP112 T01940150 $

TAF KNTU 0215/0315 31006KT 9999 SCT050 QNH2982INS
  BECMG 0220/0222 01025G38KT 9999 VCSH SCT010 BKN035 OVC050 QNH2985INS
  TEMPO 0300/0306 3200 SHRA BR SCT007 BKN015 OVC030 T23/0219Z T14/0312Z FN00071


KECG 021954Z 29008KT 10SM OVC033 21/16 A2986 RMK AO2 SLP111 T02060156

KECG 021720Z 0218/0318 31005KT P6SM BKN040 BKN060
  FM030000 31008KT P6SM VCSH BKN012
  FM030300 32010KT P6SM VCSH BKN008
  FM030600 34015G24KT 6SM -RA BR OVC008
  FM031200 35020G30KT 6SM -RA BR OVC010


KEWN 021954Z 31007KT 10SM OVC046 21/13 A2987 RMK AO2 SLP116 T02110133

KEWN 021741Z 0218/0318 29005KT P6SM BKN035
  FM030200 33007KT P6SM BKN015
  FM030500 35011G20KT P6SM -RA OVC007
  FM031500 35014G25KT 5SM -RA BR OVC007


KNKT 021956Z 31010KT 7SM BKN050 22/14 A2986 RMK SLP109 T02170139

TAF KNKT 0215/0315 VRB05KT 9999 SCT030 OVC060 QNH2983INS
  TEMPO 0303/0309 35010KT OVC015 T23/0219Z T16/0909Z


KILM 021953Z 30011KT 10SM SCT047 24/13 A2987 RMK AO2 SLP114 T02390128

KILM 021730Z 0218/0318 32007KT P6SM BKN040
  FM030100 33007KT P6SM BKN015
  FM030500 33007KT P6SM OVC008
  FM031200 34014G22KT P6SM OVC010


KCAE 021956Z 34005KT 10SM BKN044 22/11 A2993 RMK AO2 SLP132 T02170111

KCAE 021740Z 0218/0318 36009KT P6SM BKN040
  FM030500 35007KT P6SM OVC025
  FM031400 03010G16KT P6SM BKN035


KSSC 021955Z 35008KT 10SM OVC049 22/11 A2991 RMK AO2A SLP132 T02180106 $

TAF KSSC 021500Z 0215/0321 35006KT 9999 OVC050 QNH2991INS
  BECMG 0300/0301 35006KT 9999 BKN025 OVC045 QNH2998INS
  BECMG 0312/0313 01009KT 9999 FEW008 OVC015 QNH3007INS
  BECMG 0313/0314 02012G18KT 9999 OVC020 QNH3009INS TX22/0219Z TN13/0312Z LAST NO AMDS AFT 0215 NEXT 0223


KMMT 021955Z AUTO 01006KT 10SM OVC047 22/11 A2991 RMK AO2 SLP130 T02160110 $

TAF KMMT 021500Z 0215/0321 VRB06KT 9999 OVC050 QNH2993INS
  BECMG 0301/0302 36006KT 9999 BKN023 QNH3003INS
  BECMG 0313/0314 02015G20KT 9999 OVC016 QNH3012INS
  BECMG 0318/0319 02012G18KT 9999 FEW024 510023 QNH3007INS TX20/0219Z TN13/0312Z LIMITED METWATCH 0215 TIL 0307


KMYR 021956Z AUTO 30012KT OVC065 22/13 A2989 RMK AO2 SLPNO T02220128 PWINO $

KMYR 021730Z 0218/0318 34005KT P6SM BKN060
  FM030300 34008KT P6SM BKN015
  FM030800 34009KT P6SM OVC008
  FM031200 35014G22KT P6SM OVC010 AMD NOT SKED


KCHS 021956Z 34007KT 10SM FEW045 BKN060 22/13 A2990 RMK AO2 SLP124 T02220133

KCHS 021720Z 0218/0318 36008KT P6SM FEW030 BKN070
  FM030000 36007KT P6SM BKN070
  FM030600 36009KT P6SM BKN025
  FM031400 01011G17KT P6SM BKN020


KSAV 021953Z 01006KT 10SM OVC044 22/14 A2991 RMK AO2 SLP128 T02170139

KSAV 021720Z 0218/0318 36007KT P6SM SCT035 BKN050
  FM030100 36006KT P6SM SCT060
  FM031100 36007KT P6SM BKN035
  FM031400 01010KT P6SM BKN025


KSVN 021955Z AUTO 08003KT 10SM OVC031 21/17 A2988 RMK AO2 SLP121 T02110165 $


KDCA 022005Z 02015KT 1 3/4SM RA BR SCT009 BKN014 OVC021 14/13 A3004 RMK AO2 P0003 T01440128 $

KDCA 021851Z 0219/0324 02013KT 1 1/2SM -RA BR BKN015 OVC020
  FM030200 36017G29KT 4SM RA BR OVC007
  FM031000 36014G21KT 6SM -RA BR OVC012
  FM031500 01013G20KT P6SM -RA OVC020


KADW 021955Z AUTO 03013G22KT 3SM -RA OVC013 13/12 A2999 RMK AO2 SLP162 P0007 T01290118 $

TAF KADW 021700Z 0217/0323 03012KT 6000 -RA BR OVC010 QNH2993INS
  TEMPO 0217/0221 03015G25KT 4800 BKN006 OVC010
  BECMG 0220/0221 03018G30KT 4800 -RA BR BKN006 OVC010 QNH2998INS
  BECMG 0300/0301 03010G20KT 8000 -RA BR OVC006 QNH2999INS
  BECMG 0313/0314 02015G25KT 9999 NSW BKN020 OVC050 QNH3011INS
  BECMG 0317/0318 02015G25KT 9999 -DZ BKN020 OVC050 QNH3019INS TX14/0217Z TN08/0310Z